createdAt,value
2022-08-11T00:03:43.194Z,3.65
2022-08-11T00:08:50.489Z,3.20
2022-08-11T00:13:52.342Z,3.53
2022-08-11T00:18:55.879Z,3.00
2022-08-11T00:24:00.618Z,3.33
2022-08-11T00:29:12.418Z,3.72
2022-08-11T00:34:16.102Z,3.08
2022-08-11T00:39:21.417Z,3.00
2022-08-11T00:44:55.585Z,2.50
2022-08-11T00:50:34.738Z,2.85
2022-08-11T00:56:11.433Z,2.95
2022-08-11T01:01:15.755Z,3.13
2022-08-11T01:06:55.157Z,3.05
2022-08-11T01:12:05.428Z,2.40
2022-08-11T01:17:46.494Z,2.70
2022-08-11T01:23:08.198Z,3.10
2022-08-11T01:28:26.173Z,2.80
2022-08-11T01:33:55.616Z,3.53
2022-08-11T01:39:25.300Z,3.15
2022-08-11T01:45:00.656Z,2.80
2022-08-11T01:50:10.971Z,3.28
2022-08-11T01:55:26.720Z,3.53
2022-08-11T02:00:32.898Z,3.40
2022-08-11T02:06:02.710Z,3.93
2022-08-11T02:11:31.119Z,3.60
2022-08-11T02:17:01.728Z,3.63
2022-08-11T02:22:27.211Z,3.85
2022-08-11T02:27:43.368Z,3.95
2022-08-11T02:33:16.442Z,4.07
2022-08-11T02:38:48.799Z,3.80
2022-08-11T02:43:59.600Z,3.95
2022-08-11T02:49:22.971Z,4.05
2022-08-11T02:54:50.507Z,4.10
2022-08-11T03:05:20.153Z,4.40
2022-08-11T03:10:43.133Z,4.65
2022-08-11T03:16:11.458Z,4.85
2022-08-11T03:21:23.639Z,4.80
2022-08-11T03:26:29.572Z,5.10
2022-08-11T03:31:36.803Z,4.80
2022-08-11T03:37:15.753Z,4.63
2022-08-11T03:42:40.805Z,4.30
2022-08-11T03:48:00.413Z,4.90
2022-08-11T03:53:28.017Z,4.68
2022-08-11T04:09:52.326Z,7.25
2022-08-11T04:15:48.092Z,8.23
2022-08-11T04:21:18.114Z,8.60
2022-08-11T04:26:54.971Z,8.18
2022-08-11T04:32:21.366Z,8.80
2022-08-11T04:37:41.792Z,8.25
2022-08-11T04:43:04.638Z,7.22
2022-08-11T04:49:02.249Z,6.88
2022-08-11T04:54:50.470Z,7.57
2022-08-11T05:05:58.724Z,7.47
2022-08-11T05:11:21.897Z,6.85
2022-08-11T05:16:48.271Z,6.70
2022-08-11T05:22:14.097Z,5.40
2022-08-11T05:27:37.778Z,4.75
2022-08-11T05:33:02.262Z,4.63
2022-08-11T05:38:28.042Z,4.75
2022-08-11T05:44:21.114Z,5.50
2022-08-11T05:49:28.879Z,4.88
2022-08-11T05:54:54.478Z,4.63
2022-08-11T06:00:10.350Z,4.95
2022-08-11T06:05:12.986Z,4.20
2022-08-11T06:10:24.161Z,3.85
2022-08-11T06:15:26.462Z,4.13
2022-08-11T06:20:32.775Z,4.63
2022-08-11T06:25:36.233Z,5.17
2022-08-11T06:30:40.429Z,6.00
2022-08-11T06:36:07.593Z,6.38
2022-08-11T06:41:32.656Z,6.50
2022-08-11T06:46:38.956Z,5.50
2022-08-11T06:51:41.727Z,4.35
2022-08-11T07:02:46.361Z,4.68
2022-08-11T07:08:37.283Z,4.05
2022-08-11T07:13:59.116Z,4.22
2022-08-11T07:19:26.675Z,4.82
2022-08-11T07:24:59.256Z,4.30
2022-08-11T07:30:09.769Z,4.80
2022-08-11T07:35:13.654Z,4.55
2022-08-11T07:40:21.726Z,3.92
2022-08-11T07:45:44.117Z,3.90
2022-08-11T07:51:05.359Z,2.95
2022-08-11T07:56:07.859Z,2.90
2022-08-11T08:01:36.685Z,2.90
2022-08-11T08:06:58.310Z,2.38
2022-08-11T08:12:20.674Z,2.20
2022-08-11T08:17:42.111Z,2.08
2022-08-11T08:22:47.950Z,2.08
2022-08-11T08:32:53.591Z,2.33
2022-08-11T08:37:55.512Z,2.17
2022-08-11T08:43:03.264Z,1.83
2022-08-11T08:48:16.778Z,2.33
2022-08-11T08:53:22.880Z,2.20
2022-08-11T08:58:25.858Z,1.85
2022-08-11T09:04:06.605Z,1.98
2022-08-11T09:08:51.917Z,1.50
2022-08-11T09:14:05.701Z,1.92
2022-08-11T09:19:09.099Z,1.83
2022-08-11T09:24:30.554Z,1.50
2022-08-11T09:29:33.068Z,2.00
2022-08-11T09:34:37.075Z,1.80
2022-08-11T09:40:00.286Z,1.70
2022-08-11T09:45:02.256Z,1.83
2022-08-11T09:50:05.117Z,2.25
2022-08-11T09:55:11.220Z,2.97
2022-08-11T10:05:38.045Z,2.17
2022-08-11T10:10:40.951Z,2.30
2022-08-11T10:15:59.698Z,1.75
2022-08-11T10:21:34.551Z,2.30
2022-08-11T10:27:08.504Z,2.00
2022-08-11T10:38:07.441Z,1.80
2022-08-11T10:43:06.819Z,1.70
2022-08-11T10:48:14.901Z,1.30
2022-08-11T10:53:37.947Z,1.60
2022-08-11T10:58:49.625Z,1.30
2022-08-11T11:03:55.255Z,1.00
2022-08-11T11:09:17.316Z,1.15
2022-08-11T11:14:47.830Z,1.13
2022-08-11T11:19:57.937Z,1.02
2022-08-11T11:25:23.390Z,1.38
2022-08-11T11:30:32.864Z,1.33
2022-08-11T11:35:49.500Z,0.90
2022-08-11T11:41:11.418Z,1.10
2022-08-11T11:46:13.945Z,1.20
2022-08-11T11:51:15.843Z,1.00
2022-08-11T11:56:18.577Z,1.40
2022-08-11T12:01:22.232Z,1.05
2022-08-11T12:06:25.472Z,1.42
2022-08-11T12:11:46.854Z,1.10
2022-08-11T12:16:49.188Z,1.15
2022-08-11T12:22:11.249Z,1.70
2022-08-11T12:27:24.137Z,1.50
2022-08-11T12:32:30.842Z,1.60
2022-08-11T12:37:39.165Z,1.30
2022-08-11T12:43:00.237Z,1.20
2022-08-11T12:48:58.828Z,1.50
2022-08-11T12:53:57.184Z,1.10
2022-08-11T12:59:19.067Z,1.15
2022-08-11T13:04:39.608Z,1.33
2022-08-11T13:09:44.230Z,1.45
2022-08-11T13:14:45.961Z,1.17
2022-08-11T13:19:49.589Z,1.17
2022-08-11T13:24:55.169Z,1.08
2022-08-11T13:30:16.023Z,1.07
2022-08-11T13:35:18.327Z,1.30
2022-08-11T13:40:33.281Z,1.20
2022-08-11T13:45:47.579Z,1.27
2022-08-11T13:51:07.922Z,0.98
2022-08-11T13:56:09.618Z,1.23
2022-08-11T14:02:03.351Z,1.95
2022-08-11T14:06:35.560Z,2.63
2022-08-11T14:12:20.467Z,1.33
2022-08-11T14:17:38.424Z,1.55
2022-08-11T14:22:46.468Z,1.80
2022-08-11T14:28:31.146Z,2.22
2022-08-11T14:33:16.516Z,1.20
2022-08-11T14:38:19.923Z,1.65
2022-08-11T14:44:14.217Z,1.45
2022-08-11T14:49:02.070Z,2.17
2022-08-11T14:54:22.870Z,1.50
2022-08-11T14:59:24.843Z,1.42
2022-08-11T15:04:36.083Z,1.50
2022-08-11T15:10:09.839Z,1.42
2022-08-11T15:15:27.211Z,1.40
2022-08-11T15:20:48.553Z,1.60
2022-08-11T15:31:20.570Z,1.58
2022-08-11T15:36:42.271Z,1.02
2022-08-11T15:42:33.537Z,1.15
2022-08-11T15:47:41.362Z,1.25
2022-08-11T15:53:17.920Z,1.40
2022-08-11T15:58:39.008Z,1.60
2022-08-11T16:04:12.584Z,1.70
2022-08-11T16:09:18.528Z,1.45
2022-08-11T16:14:46.062Z,1.30
2022-08-11T16:19:51.596Z,1.50
2022-08-11T16:27:03.084Z,2.60
2022-08-11T16:30:16.214Z,2.13
2022-08-11T16:35:38.772Z,1.80
2022-08-11T16:40:42.581Z,1.55
2022-08-11T16:46:04.970Z,1.55
2022-08-11T16:51:08.165Z,1.30
2022-08-11T16:56:14.254Z,2.03
2022-08-11T17:01:20.310Z,1.48
2022-08-11T17:06:41.538Z,1.38
2022-08-11T17:12:08.925Z,1.23
2022-08-11T17:17:26.218Z,1.42
2022-08-11T17:22:48.836Z,1.45
2022-08-11T17:27:52.005Z,1.33
2022-08-11T17:33:12.158Z,1.20
2022-08-11T17:38:18.797Z,1.42
2022-08-11T17:43:38.825Z,1.50
2022-08-11T17:48:47.881Z,2.05
2022-08-11T17:54:24.088Z,2.33
2022-08-11T17:59:49.133Z,1.65
2022-08-11T18:04:52.648Z,1.10
2022-08-11T18:10:12.790Z,0.95
2022-08-11T18:15:33.135Z,1.20
2022-08-11T18:20:54.960Z,1.00
2022-08-11T18:26:19.486Z,1.05
2022-08-11T18:31:40.813Z,1.15
2022-08-11T18:37:21.716Z,1.10
2022-08-11T18:42:45.345Z,1.08
2022-08-11T18:48:09.327Z,1.75
2022-08-11T18:53:33.461Z,1.13
2022-08-11T18:58:57.795Z,1.50
2022-08-11T19:04:20.630Z,1.25
2022-08-11T19:09:40.798Z,1.02
2022-08-11T19:15:03.055Z,1.00
2022-08-11T19:20:26.679Z,1.30
2022-08-11T19:25:50.616Z,1.10
2022-08-11T19:31:13.485Z,1.80
2022-08-11T19:36:34.570Z,1.20
2022-08-11T19:41:57.928Z,1.30
2022-08-11T19:47:20.273Z,1.70
2022-08-11T19:52:40.885Z,1.10
2022-08-11T19:58:02.493Z,1.40
2022-08-11T20:03:27.092Z,1.73
2022-08-11T20:08:49.464Z,1.20
2022-08-11T20:14:13.790Z,1.40
2022-08-11T20:19:55.972Z,1.42
2022-08-11T20:25:17.502Z,1.13
2022-08-11T20:30:37.878Z,1.30
2022-08-11T20:35:58.168Z,1.50
2022-08-11T20:41:20.490Z,1.30
2022-08-11T20:46:43.901Z,1.05
2022-08-11T20:52:06.243Z,1.27
2022-08-11T20:57:58.683Z,1.40
2022-08-11T21:03:08.174Z,1.25
2022-08-11T21:08:30.128Z,1.00
2022-08-11T21:13:55.653Z,1.50
2022-08-11T21:19:59.752Z,1.58
2022-08-11T21:25:10.197Z,1.98
2022-08-11T21:30:30.628Z,1.70
2022-08-11T21:35:51.951Z,1.60
2022-08-11T21:41:13.158Z,1.52
2022-08-11T21:46:36.482Z,1.88
2022-08-11T21:51:56.718Z,1.50
2022-08-11T21:57:17.892Z,1.35
2022-08-11T22:02:39.011Z,1.73
2022-08-11T22:07:59.139Z,1.77
2022-08-11T22:13:19.495Z,1.50
2022-08-11T22:18:40.770Z,1.63
2022-08-11T22:24:02.784Z,1.50
2022-08-11T22:29:49.906Z,2.25
2022-08-11T22:35:03.549Z,1.88
2022-08-11T22:40:25.459Z,1.80
2022-08-11T22:45:45.269Z,1.50
2022-08-11T22:51:05.675Z,1.80
2022-08-11T22:56:32.810Z,1.88
2022-08-11T23:01:56.261Z,2.10
2022-08-11T23:07:51.406Z,1.80
2022-08-11T23:13:01.265Z,2.08
2022-08-11T23:18:22.994Z,2.30
2022-08-11T23:23:44.900Z,2.05
2022-08-11T23:29:05.189Z,2.75
2022-08-11T23:34:39.419Z,2.75
2022-08-11T23:40:11.135Z,2.40
2022-08-11T23:45:33.127Z,2.00
2022-08-11T23:50:53.995Z,2.80
2022-08-11T23:56:14.318Z,4.38
